sensor_id;sensor_type;location;lat;lon;timestamp;pressure;altitude;pressure_sealevel;temperature;humidity
21111;BME280;10713;51.912;4.494;2023-08-06T00:01:24;100432.63;;;15.64;100.00
21111;BME280;10713;51.912;4.494;2023-08-06T00:03:50;100435.47;;;15.61;100.00
21111;BME280;10713;51.912;4.494;2023-08-06T00:06:16;100433.25;;;15.67;100.00
21111;BME280;10713;51.912;4.494;2023-08-06T00:08:41;100435.00;;;15.68;100.00
21111;BME280;10713;51.912;4.494;2023-08-06T00:11:06;100428.63;;;15.71;100.00
21111;BME280;10713;51.912;4.494;2023-08-06T00:13:32;100432.88;;;15.73;100.00
21111;BME280;10713;51.912;4.494;2023-08-06T00:16:11;100433.34;;;15.80;100.00
21111;BME280;10713;51.912;4.494;2023-08-06T00:18:36;100434.19;;;15.81;100.00
21111;BME280;10713;51.912;4.494;2023-08-06T00:21:02;100431.59;;;15.79;100.00
21111;BME280;10713;51.912;4.494;2023-08-06T00:23:27;100434.38;;;15.77;100.00
21111;BME280;10713;51.912;4.494;2023-08-06T00:25:52;100430.97;;;15.75;100.00
21111;BME280;10713;51.912;4.494;2023-08-06T00:28:18;100438.41;;;15.70;100.00
21111;BME280;10713;51.912;4.494;2023-08-06T00:30:43;100434.81;;;15.71;100.00
21111;BME280;10713;51.912;4.494;2023-08-06T00:33:08;100439.16;;;15.72;100.00
21111;BME280;10713;51.912;4.494;2023-08-06T00:35:34;100442.78;;;15.71;100.00
21111;BME280;10713;51.912;4.494;2023-08-06T00:37:59;100437.91;;;15.78;100.00
21111;BME280;10713;51.912;4.494;2023-08-06T00:40:24;100440.25;;;15.83;100.00
21111;BME280;10713;51.912;4.494;2023-08-06T00:42:50;100436.41;;;15.87;100.00
21111;BME280;10713;51.912;4.494;2023-08-06T00:45:15;100436.53;;;15.85;100.00
21111;BME280;10713;51.912;4.494;2023-08-06T00:47:41;100433.88;;;15.85;100.00
21111;BME280;10713;51.912;4.494;2023-08-06T00:50:07;100433.75;;;15.87;100.00
21111;BME280;10713;51.912;4.494;2023-08-06T00:52:34;100434.94;;;15.83;100.00
21111;BME280;10713;51.912;4.494;2023-08-06T00:54:59;100443.13;;;15.80;100.00
21111;BME280;10713;51.912;4.494;2023-08-06T00:57:25;100445.03;;;15.90;100.00
21111;BME280;10713;51.912;4.494;2023-08-06T00:59:52;100438.56;;;15.94;100.00
21111;BME280;10713;51.912;4.494;2023-08-06T01:02:18;100435.56;;;15.99;100.00
21111;BME280;10713;51.912;4.494;2023-08-06T01:04:44;100429.19;;;16.02;100.00
21111;BME280;10713;51.912;4.494;2023-08-06T01:07:16;100439.41;;;16.08;100.00
21111;BME280;10713;51.912;4.494;2023-08-06T01:09:45;100430.91;;;16.03;100.00
21111;BME280;10713;51.912;4.494;2023-08-06T01:12:28;100437.41;;;16.11;100.00
21111;BME280;10713;51.912;4.494;2023-08-06T01:15:02;100437.00;;;16.17;100.00
21111;BME280;10713;51.912;4.494;2023-08-06T01:17:30;100434.00;;;16.22;100.00
21111;BME280;10713;51.912;4.494;2023-08-06T01:19:56;100439.44;;;16.20;100.00
21111;BME280;10713;51.912;4.494;2023-08-06T01:22:21;100436.25;;;16.15;100.00
21111;BME280;10713;51.912;4.494;2023-08-06T01:24:49;100437.72;;;15.67;100.00
21111;BME280;10713;51.912;4.494;2023-08-06T01:27:37;100438.56;;;15.67;100.00
21111;BME280;10713;51.912;4.494;2023-08-06T01:30:12;100446.34;;;16.36;100.00
21111;BME280;10713;51.912;4.494;2023-08-06T01:32:44;100446.78;;;15.91;100.00
21111;BME280;10713;51.912;4.494;2023-08-06T01:35:11;100449.19;;;15.82;100.00
21111;BME280;10713;51.912;4.494;2023-08-06T01:37:38;100456.34;;;16.19;100.00
21111;BME280;10713;51.912;4.494;2023-08-06T01:40:10;100444.56;;;16.24;100.00
21111;BME280;10713;51.912;4.494;2023-08-06T01:42:36;100450.72;;;16.24;100.00
21111;BME280;10713;51.912;4.494;2023-08-06T01:45:01;100449.34;;;16.31;100.00
21111;BME280;10713;51.912;4.494;2023-08-06T01:47:26;100443.28;;;16.29;100.00
21111;BME280;10713;51.912;4.494;2023-08-06T01:49:52;100447.31;;;16.35;100.00
21111;BME280;10713;51.912;4.494;2023-08-06T01:52:17;100447.19;;;16.36;100.00
21111;BME280;10713;51.912;4.494;2023-08-06T01:54:42;100448.25;;;16.34;100.00
21111;BME280;10713;51.912;4.494;2023-08-06T01:57:08;100448.47;;;16.31;100.00
21111;BME280;10713;51.912;4.494;2023-08-06T01:59:33;100453.59;;;16.34;100.00
21111;BME280;10713;51.912;4.494;2023-08-06T02:01:58;100450.94;;;16.34;100.00
21111;BME280;10713;51.912;4.494;2023-08-06T02:04:24;100465.75;;;16.38;100.00
21111;BME280;10713;51.912;4.494;2023-08-06T02:06:49;100463.19;;;16.36;100.00
21111;BME280;10713;51.912;4.494;2023-08-06T02:09:14;100465.13;;;16.34;100.00
21111;BME280;10713;51.912;4.494;2023-08-06T02:11:40;100467.56;;;16.25;100.00
21111;BME280;10713;51.912;4.494;2023-08-06T02:14:05;100474.69;;;16.24;100.00
21111;BME280;10713;51.912;4.494;2023-08-06T02:16:30;100473.84;;;16.24;100.00
21111;BME280;10713;51.912;4.494;2023-08-06T02:18:56;100479.50;;;16.32;100.00
21111;BME280;10713;51.912;4.494;2023-08-06T02:21:21;100472.25;;;16.47;100.00
21111;BME280;10713;51.912;4.494;2023-08-06T02:23:46;100470.44;;;16.60;100.00
21111;BME280;10713;51.912;4.494;2023-08-06T02:26:12;100470.53;;;16.71;100.00
21111;BME280;10713;51.912;4.494;2023-08-06T02:28:37;100463.94;;;16.77;100.00
21111;BME280;10713;51.912;4.494;2023-08-06T02:31:02;100472.78;;;16.64;100.00
21111;BME280;10713;51.912;4.494;2023-08-06T02:33:28;100463.84;;;16.65;100.00
21111;BME280;10713;51.912;4.494;2023-08-06T02:36:00;100467.53;;;16.76;100.00
21111;BME280;10713;51.912;4.494;2023-08-06T02:38:26;100460.94;;;16.81;100.00
21111;BME280;10713;51.912;4.494;2023-08-06T02:40:52;100473.00;;;16.87;100.00
21111;BME280;10713;51.912;4.494;2023-08-06T02:43:17;100476.19;;;16.79;100.00
21111;BME280;10713;51.912;4.494;2023-08-06T02:45:42;100473.75;;;16.89;100.00
21111;BME280;10713;51.912;4.494;2023-08-06T02:48:08;100474.50;;;16.78;100.00
21111;BME280;10713;51.912;4.494;2023-08-06T02:50:41;100479.38;;;16.72;100.00
21111;BME280;10713;51.912;4.494;2023-08-06T02:53:07;100469.88;;;16.67;100.00
21111;BME280;10713;51.912;4.494;2023-08-06T02:55:34;100473.97;;;16.60;100.00
21111;BME280;10713;51.912;4.494;2023-08-06T02:58:00;100478.75;;;16.55;100.00
21111;BME280;10713;51.912;4.494;2023-08-06T03:00:26;100476.31;;;16.52;100.00
21111;BME280;10713;51.912;4.494;2023-08-06T03:02:51;100486.50;;;15.94;100.00
21111;BME280;10713;51.912;4.494;2023-08-06T03:05:17;100487.63;;;15.77;100.00
21111;BME280;10713;51.912;4.494;2023-08-06T03:07:43;100486.00;;;15.75;100.00
21111;BME280;10713;51.912;4.494;2023-08-06T03:10:08;100486.22;;;15.72;100.00
21111;BME280;10713;51.912;4.494;2023-08-06T03:12:34;100491.78;;;15.67;100.00
21111;BME280;10713;51.912;4.494;2023-08-06T03:14:59;100492.13;;;15.63;100.00
21111;BME280;10713;51.912;4.494;2023-08-06T03:17:24;100491.34;;;15.61;100.00
21111;BME280;10713;51.912;4.494;2023-08-06T03:19:49;100496.38;;;15.65;100.00
21111;BME280;10713;51.912;4.494;2023-08-06T03:22:15;100484.13;;;15.63;100.00
21111;BME280;10713;51.912;4.494;2023-08-06T03:24:40;100477.94;;;15.62;100.00
21111;BME280;10713;51.912;4.494;2023-08-06T03:27:06;100484.97;;;15.63;100.00
21111;BME280;10713;51.912;4.494;2023-08-06T03:29:31;100490.44;;;15.47;100.00
21111;BME280;10713;51.912;4.494;2023-08-06T03:31:56;100482.66;;;15.44;100.00
21111;BME280;10713;51.912;4.494;2023-08-06T03:34:22;100490.09;;;15.39;100.00
21111;BME280;10713;51.912;4.494;2023-08-06T03:36:47;100494.72;;;15.50;100.00
21111;BME280;10713;51.912;4.494;2023-08-06T03:39:12;100484.63;;;15.55;100.00
21111;BME280;10713;51.912;4.494;2023-08-06T03:41:39;100492.91;;;15.50;100.00
21111;BME280;10713;51.912;4.494;2023-08-06T03:44:04;100498.34;;;15.49;100.00
21111;BME280;10713;51.912;4.494;2023-08-06T03:46:30;100502.44;;;15.40;100.00
21111;BME280;10713;51.912;4.494;2023-08-06T03:48:59;100505.59;;;15.32;100.00
21111;BME280;10713;51.912;4.494;2023-08-06T03:51:24;100511.16;;;15.42;100.00
21111;BME280;10713;51.912;4.494;2023-08-06T03:53:49;100512.97;;;15.42;100.00
21111;BME280;10713;51.912;4.494;2023-08-06T03:56:15;100522.75;;;15.41;100.00
21111;BME280;10713;51.912;4.494;2023-08-06T03:58:40;100524.78;;;15.38;100.00
21111;BME280;10713;51.912;4.494;2023-08-06T04:01:05;100523.00;;;15.24;100.00
21111;BME280;10713;51.912;4.494;2023-08-06T04:03:31;100529.66;;;15.17;100.00
21111;BME280;10713;51.912;4.494;2023-08-06T04:05:56;100536.75;;;15.30;100.00
21111;BME280;10713;51.912;4.494;2023-08-06T04:08:21;100539.75;;;15.39;100.00
21111;BME280;10713;51.912;4.494;2023-08-06T04:10:52;100548.72;;;15.23;100.00
21111;BME280;10713;51.912;4.494;2023-08-06T04:13:18;100547.13;;;15.21;100.00
21111;BME280;10713;51.912;4.494;2023-08-06T04:15:43;100555.38;;;15.16;100.00
21111;BME280;10713;51.912;4.494;2023-08-06T04:18:08;100542.47;;;15.10;100.00
21111;BME280;10713;51.912;4.494;2023-08-06T04:20:34;100553.75;;;15.14;100.00
21111;BME280;10713;51.912;4.494;2023-08-06T04:23:05;100557.56;;;15.09;100.00
21111;BME280;10713;51.912;4.494;2023-08-06T04:25:31;100561.72;;;15.14;100.00
21111;BME280;10713;51.912;4.494;2023-08-06T04:27:56;100555.09;;;15.06;100.00
21111;BME280;10713;51.912;4.494;2023-08-06T04:30:21;100568.31;;;15.08;100.00
21111;BME280;10713;51.912;4.494;2023-08-06T04:32:49;100575.22;;;15.10;100.00
21111;BME280;10713;51.912;4.494;2023-08-06T04:35:14;100579.59;;;15.12;100.00
21111;BME280;10713;51.912;4.494;2023-08-06T04:37:40;100581.97;;;15.02;100.00
21111;BME280;10713;51.912;4.494;2023-08-06T04:40:05;100585.13;;;14.94;100.00
21111;BME280;10713;51.912;4.494;2023-08-06T04:42:31;100585.97;;;14.95;100.00
21111;BME280;10713;51.912;4.494;2023-08-06T04:44:56;100597.56;;;14.94;100.00
21111;BME280;10713;51.912;4.494;2023-08-06T04:47:21;100598.69;;;15.04;100.00
21111;BME280;10713;51.912;4.494;2023-08-06T04:49:47;100601.59;;;14.99;100.00
21111;BME280;10713;51.912;4.494;2023-08-06T04:52:12;100602.69;;;14.97;100.00
21111;BME280;10713;51.912;4.494;2023-08-06T04:54:37;100609.31;;;14.90;100.00
21111;BME280;10713;51.912;4.494;2023-08-06T04:57:03;100611.00;;;14.91;100.00
21111;BME280;10713;51.912;4.494;2023-08-06T04:59:28;100612.81;;;14.90;100.00
21111;BME280;10713;51.912;4.494;2023-08-06T05:01:54;100608.84;;;14.97;100.00
21111;BME280;10713;51.912;4.494;2023-08-06T05:04:19;100615.88;;;14.98;100.00
21111;BME280;10713;51.912;4.494;2023-08-06T05:06:44;100615.09;;;14.96;100.00
21111;BME280;10713;51.912;4.494;2023-08-06T05:09:09;100621.38;;;14.95;100.00
21111;BME280;10713;51.912;4.494;2023-08-06T05:11:35;100620.72;;;14.92;100.00
21111;BME280;10713;51.912;4.494;2023-08-06T05:14:00;100628.09;;;14.86;100.00
21111;BME280;10713;51.912;4.494;2023-08-06T05:16:25;100629.72;;;15.03;100.00
21111;BME280;10713;51.912;4.494;2023-08-06T05:18:51;100626.59;;;14.97;100.00
21111;BME280;10713;51.912;4.494;2023-08-06T05:21:16;100634.94;;;15.05;100.00
21111;BME280;10713;51.912;4.494;2023-08-06T05:23:42;100638.94;;;15.12;100.00
21111;BME280;10713;51.912;4.494;2023-08-06T05:26:07;100636.47;;;14.95;100.00
21111;BME280;10713;51.912;4.494;2023-08-06T05:28:34;100649.59;;;15.12;100.00
21111;BME280;10713;51.912;4.494;2023-08-06T05:31:03;100655.56;;;15.16;100.00
21111;BME280;10713;51.912;4.494;2023-08-06T05:33:28;100654.97;;;15.10;100.00
21111;BME280;10713;51.912;4.494;2023-08-06T05:35:53;100653.28;;;15.09;100.00
21111;BME280;10713;51.912;4.494;2023-08-06T05:38:19;100661.91;;;15.13;100.00
21111;BME280;10713;51.912;4.494;2023-08-06T05:40:44;100662.28;;;15.07;100.00
21111;BME280;10713;51.912;4.494;2023-08-06T05:43:09;100661.72;;;15.16;100.00
21111;BME280;10713;51.912;4.494;2023-08-06T05:45:35;100673.78;;;15.22;100.00
21111;BME280;10713;51.912;4.494;2023-08-06T05:48:00;100669.72;;;15.30;100.00
21111;BME280;10713;51.912;4.494;2023-08-06T05:50:25;100671.50;;;15.30;100.00
21111;BME280;10713;51.912;4.494;2023-08-06T05:52:51;100676.66;;;15.33;100.00
21111;BME280;10713;51.912;4.494;2023-08-06T05:55:17;100681.88;;;15.35;100.00
21111;BME280;10713;51.912;4.494;2023-08-06T05:57:42;100684.81;;;15.30;100.00
21111;BME280;10713;51.912;4.494;2023-08-06T06:00:07;100690.78;;;15.19;100.00
21111;BME280;10713;51.912;4.494;2023-08-06T06:02:33;100687.28;;;15.19;100.00
21111;BME280;10713;51.912;4.494;2023-08-06T06:04:58;100694.84;;;15.10;100.00
21111;BME280;10713;51.912;4.494;2023-08-06T06:07:24;100702.28;;;15.05;100.00
21111;BME280;10713;51.912;4.494;2023-08-06T06:09:49;100689.75;;;15.22;100.00
21111;BME280;10713;51.912;4.494;2023-08-06T06:12:14;100702.28;;;15.05;100.00
21111;BME280;10713;51.912;4.494;2023-08-06T06:14:40;100702.75;;;15.12;100.00
21111;BME280;10713;51.912;4.494;2023-08-06T06:17:05;100711.97;;;15.21;100.00
21111;BME280;10713;51.912;4.494;2023-08-06T06:19:30;100711.31;;;15.31;100.00
21111;BME280;10713;51.912;4.494;2023-08-06T06:21:55;100714.06;;;15.44;100.00
21111;BME280;10713;51.912;4.494;2023-08-06T06:24:23;100705.81;;;15.20;100.00
21111;BME280;10713;51.912;4.494;2023-08-06T06:26:48;100706.91;;;15.16;100.00
21111;BME280;10713;51.912;4.494;2023-08-06T06:29:13;100715.81;;;15.31;100.00
21111;BME280;10713;51.912;4.494;2023-08-06T06:31:38;100715.59;;;15.34;100.00
21111;BME280;10713;51.912;4.494;2023-08-06T06:34:04;100709.41;;;15.19;100.00
21111;BME280;10713;51.912;4.494;2023-08-06T06:36:29;100721.94;;;15.17;100.00
21111;BME280;10713;51.912;4.494;2023-08-06T06:38:54;100721.28;;;15.42;100.00
21111;BME280;10713;51.912;4.494;2023-08-06T06:41:20;100724.44;;;15.49;100.00
21111;BME280;10713;51.912;4.494;2023-08-06T06:43:45;100723.47;;;15.50;100.00
21111;BME280;10713;51.912;4.494;2023-08-06T06:46:10;100729.19;;;15.58;100.00
21111;BME280;10713;51.912;4.494;2023-08-06T06:48:36;100728.81;;;15.64;100.00
21111;BME280;10713;51.912;4.494;2023-08-06T06:51:01;100738.91;;;15.73;100.00
21111;BME280;10713;51.912;4.494;2023-08-06T06:53:28;100733.09;;;15.81;100.00
21111;BME280;10713;51.912;4.494;2023-08-06T06:56:01;100732.72;;;15.87;100.00
21111;BME280;10713;51.912;4.494;2023-08-06T06:58:27;100751.84;;;15.94;100.00
21111;BME280;10713;51.912;4.494;2023-08-06T07:00:52;100743.66;;;15.97;100.00
21111;BME280;10713;51.912;4.494;2023-08-06T07:03:19;100743.84;;;15.94;100.00
21111;BME280;10713;51.912;4.494;2023-08-06T07:05:45;100745.16;;;16.01;100.00
21111;BME280;10713;51.912;4.494;2023-08-06T07:08:10;100752.19;;;16.02;100.00
21111;BME280;10713;51.912;4.494;2023-08-06T07:10:36;100742.09;;;16.07;100.00
21111;BME280;10713;51.912;4.494;2023-08-06T07:13:02;100756.56;;;16.17;100.00
21111;BME280;10713;51.912;4.494;2023-08-06T07:15:27;100759.88;;;16.21;100.00
21111;BME280;10713;51.912;4.494;2023-08-06T07:17:52;100760.63;;;16.23;100.00
21111;BME280;10713;51.912;4.494;2023-08-06T07:20:18;100762.69;;;16.32;100.00
21111;BME280;10713;51.912;4.494;2023-08-06T07:22:44;100751.25;;;16.44;100.00
21111;BME280;10713;51.912;4.494;2023-08-06T07:25:09;100759.50;;;16.54;100.00
21111;BME280;10713;51.912;4.494;2023-08-06T07:27:34;100749.44;;;16.72;100.00
21111;BME280;10713;51.912;4.494;2023-08-06T07:30:00;100759.94;;;16.88;100.00
21111;BME280;10713;51.912;4.494;2023-08-06T07:32:26;100756.06;;;17.06;100.00
21111;BME280;10713;51.912;4.494;2023-08-06T07:34:51;100757.03;;;17.18;100.00
21111;BME280;10713;51.912;4.494;2023-08-06T07:37:21;100754.34;;;17.31;100.00
21111;BME280;10713;51.912;4.494;2023-08-06T07:39:47;100756.41;;;17.40;100.00
21111;BME280;10713;51.912;4.494;2023-08-06T07:42:12;100752.97;;;17.51;100.00
21111;BME280;10713;51.912;4.494;2023-08-06T07:44:37;100759.19;;;17.64;100.00
21111;BME280;10713;51.912;4.494;2023-08-06T07:47:03;100757.91;;;17.70;100.00
21111;BME280;10713;51.912;4.494;2023-08-06T07:49:28;100762.38;;;17.82;100.00
21111;BME280;10713;51.912;4.494;2023-08-06T07:51:54;100768.34;;;17.98;100.00
21111;BME280;10713;51.912;4.494;2023-08-06T07:54:19;100757.94;;;18.19;100.00
21111;BME280;10713;51.912;4.494;2023-08-06T07:56:44;100751.03;;;18.41;100.00
21111;BME280;10713;51.912;4.494;2023-08-06T07:59:11;100756.97;;;18.57;100.00
21111;BME280;10713;51.912;4.494;2023-08-06T08:01:36;100765.97;;;18.80;100.00
21111;BME280;10713;51.912;4.494;2023-08-06T08:04:01;100754.44;;;18.91;100.00
21111;BME280;10713;51.912;4.494;2023-08-06T08:06:27;100753.69;;;19.13;100.00
21111;BME280;10713;51.912;4.494;2023-08-06T08:08:52;100759.31;;;19.32;100.00
21111;BME280;10713;51.912;4.494;2023-08-06T08:11:17;100749.75;;;19.52;100.00
21111;BME280;10713;51.912;4.494;2023-08-06T08:13:43;100759.28;;;19.79;100.00
21111;BME280;10713;51.912;4.494;2023-08-06T08:16:09;100769.88;;;20.03;100.00
21111;BME280;10713;51.912;4.494;2023-08-06T08:18:34;100752.81;;;20.15;100.00
21111;BME280;10713;51.912;4.494;2023-08-06T08:21:00;100764.47;;;20.25;100.00
21111;BME280;10713;51.912;4.494;2023-08-06T08:23:25;100755.84;;;20.22;100.00
21111;BME280;10713;51.912;4.494;2023-08-06T08:25:50;100766.16;;;20.38;100.00
21111;BME280;10713;51.912;4.494;2023-08-06T08:28:16;100765.44;;;20.36;100.00
21111;BME280;10713;51.912;4.494;2023-08-06T08:30:41;100768.72;;;20.39;100.00
21111;BME280;10713;51.912;4.494;2023-08-06T08:33:07;100773.13;;;20.40;100.00
21111;BME280;10713;51.912;4.494;2023-08-06T08:35:33;100782.59;;;20.44;100.00
21111;BME280;10713;51.912;4.494;2023-08-06T08:37:59;100789.66;;;20.45;100.00
21111;BME280;10713;51.912;4.494;2023-08-06T08:40:32;100797.94;;;20.65;100.00
21111;BME280;10713;51.912;4.494;2023-08-06T08:43:02;100778.31;;;20.97;100.00
21111;BME280;10713;51.912;4.494;2023-08-06T08:45:29;100771.19;;;21.28;100.00
21111;BME280;10713;51.912;4.494;2023-08-06T08:47:54;100766.00;;;21.78;100.00
21111;BME280;10713;51.912;4.494;2023-08-06T08:50:21;100766.03;;;22.18;100.00
21111;BME280;10713;51.912;4.494;2023-08-06T08:52:47;100788.19;;;22.41;100.00
21111;BME280;10713;51.912;4.494;2023-08-06T08:55:14;100773.34;;;22.66;100.00
21111;BME280;10713;51.912;4.494;2023-08-06T08:57:40;100775.25;;;22.95;100.00
21111;BME280;10713;51.912;4.494;2023-08-06T09:00:06;100760.91;;;23.24;100.00
21111;BME280;10713;51.912;4.494;2023-08-06T09:02:33;100782.06;;;23.75;100.00
21111;BME280;10713;51.912;4.494;2023-08-06T09:05:00;100778.31;;;23.96;100.00
21111;BME280;10713;51.912;4.494;2023-08-06T09:07:49;100774.63;;;24.15;100.00
21111;BME280;10713;51.912;4.494;2023-08-06T09:10:16;100780.22;;;24.03;100.00
21111;BME280;10713;51.912;4.494;2023-08-06T09:12:43;100782.50;;;24.36;100.00
21111;BME280;10713;51.912;4.494;2023-08-06T09:15:09;100786.19;;;24.62;100.00
21111;BME280;10713;51.912;4.494;2023-08-06T09:17:36;100782.09;;;24.94;100.00
21111;BME280;10713;51.912;4.494;2023-08-06T09:20:12;100755.88;;;24.86;100.00
21111;BME280;10713;51.912;4.494;2023-08-06T09:22:37;100780.16;;;24.68;100.00
21111;BME280;10713;51.912;4.494;2023-08-06T09:25:03;100789.34;;;24.93;100.00
21111;BME280;10713;51.912;4.494;2023-08-06T09:27:34;100768.09;;;25.34;100.00
21111;BME280;10713;51.912;4.494;2023-08-06T09:30:00;100769.31;;;25.66;100.00
21111;BME280;10713;51.912;4.494;2023-08-06T09:32:25;100763.31;;;25.80;100.00
21111;BME280;10713;51.912;4.494;2023-08-06T09:34:56;100765.63;;;25.75;100.00
21111;BME280;10713;51.912;4.494;2023-08-06T09:37:21;100765.88;;;25.82;100.00
21111;BME280;10713;51.912;4.494;2023-08-06T09:39:47;100771.66;;;25.61;100.00
21111;BME280;10713;51.912;4.494;2023-08-06T09:42:14;100764.88;;;25.31;100.00
21111;BME280;10713;51.912;4.494;2023-08-06T09:44:40;100781.34;;;25.20;100.00
21111;BME280;10713;51.912;4.494;2023-08-06T09:47:06;100763.13;;;25.22;100.00
21111;BME280;10713;51.912;4.494;2023-08-06T09:52:00;100764.41;;;25.35;100.00
21111;BME280;10713;51.912;4.494;2023-08-06T09:54:27;100773.38;;;25.18;100.00
21111;BME280;10713;51.912;4.494;2023-08-06T09:56:54;100781.09;;;25.31;100.00
21111;BME280;10713;51.912;4.494;2023-08-06T09:59:20;100775.75;;;25.39;100.00
21111;BME280;10713;51.912;4.494;2023-08-06T10:01:46;100757.97;;;25.89;100.00
21111;BME280;10713;51.912;4.494;2023-08-06T10:04:13;100762.66;;;26.13;100.00
21111;BME280;10713;51.912;4.494;2023-08-06T10:06:42;100770.56;;;26.06;100.00
21111;BME280;10713;51.912;4.494;2023-08-06T10:09:08;100770.38;;;25.99;100.00
21111;BME280;10713;51.912;4.494;2023-08-06T10:11:36;100780.75;;;26.20;100.00
21111;BME280;10713;51.912;4.494;2023-08-06T10:14:18;100767.88;;;26.14;100.00
21111;BME280;10713;51.912;4.494;2023-08-06T10:16:45;100763.88;;;26.26;100.00
21111;BME280;10713;51.912;4.494;2023-08-06T10:19:12;100770.44;;;26.16;100.00
21111;BME280;10713;51.912;4.494;2023-08-06T10:21:39;100762.41;;;25.98;100.00
21111;BME280;10713;51.912;4.494;2023-08-06T10:24:07;100777.56;;;25.82;100.00
21111;BME280;10713;51.912;4.494;2023-08-06T10:26:35;100771.88;;;25.42;100.00
21111;BME280;10713;51.912;4.494;2023-08-06T10:29:01;100771.53;;;25.19;100.00
21111;BME280;10713;51.912;4.494;2023-08-06T10:31:54;100762.31;;;25.11;100.00
21111;BME280;10713;51.912;4.494;2023-08-06T10:34:20;100770.00;;;25.16;100.00
21111;BME280;10713;51.912;4.494;2023-08-06T10:36:46;100754.16;;;25.03;100.00
21111;BME280;10713;51.912;4.494;2023-08-06T10:39:14;100764.03;;;24.94;100.00
21111;BME280;10713;51.912;4.494;2023-08-06T10:41:42;100771.97;;;24.60;100.00
21111;BME280;10713;51.912;4.494;2023-08-06T10:44:09;100762.41;;;24.48;100.00
21111;BME280;10713;51.912;4.494;2023-08-06T10:46:35;100767.09;;;24.46;100.00
21111;BME280;10713;51.912;4.494;2023-08-06T10:49:01;100777.69;;;24.57;100.00
21111;BME280;10713;51.912;4.494;2023-08-06T10:51:26;100777.69;;;24.75;100.00
21111;BME280;10713;51.912;4.494;2023-08-06T10:53:52;100782.09;;;24.58;100.00
21111;BME280;10713;51.912;4.494;2023-08-06T10:56:23;100774.16;;;24.57;100.00
21111;BME280;10713;51.912;4.494;2023-08-06T10:58:49;100790.19;;;24.58;100.00
21111;BME280;10713;51.912;4.494;2023-08-06T11:01:15;100783.56;;;24.70;100.00
21111;BME280;10713;51.912;4.494;2023-08-06T11:03:45;100783.66;;;24.79;100.00
21111;BME280;10713;51.912;4.494;2023-08-06T11:06:17;100787.03;;;24.63;100.00
21111;BME280;10713;51.912;4.494;2023-08-06T11:08:50;100789.00;;;24.61;100.00
21111;BME280;10713;51.912;4.494;2023-08-06T11:11:17;100785.50;;;24.33;100.00
21111;BME280;10713;51.912;4.494;2023-08-06T11:13:44;100791.84;;;24.14;100.00
21111;BME280;10713;51.912;4.494;2023-08-06T11:16:16;100787.81;;;23.90;100.00
21111;BME280;10713;51.912;4.494;2023-08-06T11:18:42;100792.56;;;23.59;100.00
21111;BME280;10713;51.912;4.494;2023-08-06T11:21:08;100793.59;;;23.58;100.00
21111;BME280;10713;51.912;4.494;2023-08-06T11:23:35;100786.47;;;23.57;100.00
21111;BME280;10713;51.912;4.494;2023-08-06T11:26:00;100798.25;;;23.56;100.00
21111;BME280;10713;51.912;4.494;2023-08-06T11:28:26;100795.72;;;23.45;100.00
21111;BME280;10713;51.912;4.494;2023-08-06T11:30:52;100792.03;;;23.46;100.00
21111;BME280;10713;51.912;4.494;2023-08-06T11:33:21;100792.28;;;23.72;100.00
21111;BME280;10713;51.912;4.494;2023-08-06T11:35:48;100793.88;;;24.02;100.00
21111;BME280;10713;51.912;4.494;2023-08-06T11:38:13;100783.19;;;24.10;100.00
21111;BME280;10713;51.912;4.494;2023-08-06T11:40:39;100779.69;;;24.00;100.00
21111;BME280;10713;51.912;4.494;2023-08-06T11:43:05;100782.03;;;23.85;100.00
21111;BME280;10713;51.912;4.494;2023-08-06T11:45:31;100797.84;;;23.51;100.00
21111;BME280;10713;51.912;4.494;2023-08-06T11:47:56;100816.03;;;23.00;100.00
21111;BME280;10713;51.912;4.494;2023-08-06T11:50:25;100819.63;;;22.51;100.00
21111;BME280;10713;51.912;4.494;2023-08-06T11:52:58;100829.72;;;21.97;100.00
21111;BME280;10713;51.912;4.494;2023-08-06T11:55:26;100825.66;;;21.51;100.00
21111;BME280;10713;51.912;4.494;2023-08-06T11:57:51;100830.22;;;21.39;100.00
21111;BME280;10713;51.912;4.494;2023-08-06T12:00:17;100833.19;;;21.25;100.00
21111;BME280;10713;51.912;4.494;2023-08-06T12:02:45;100824.28;;;21.03;100.00
21111;BME280;10713;51.912;4.494;2023-08-06T12:07:38;100833.81;;;20.96;100.00
21111;BME280;10713;51.912;4.494;2023-08-06T12:10:04;100827.13;;;20.90;100.00
21111;BME280;10713;51.912;4.494;2023-08-06T12:12:30;100834.22;;;20.80;100.00
21111;BME280;10713;51.912;4.494;2023-08-06T12:14:55;100834.94;;;20.82;100.00
21111;BME280;10713;51.912;4.494;2023-08-06T12:17:22;100838.59;;;20.92;100.00
21111;BME280;10713;51.912;4.494;2023-08-06T12:19:47;100850.16;;;20.93;100.00
21111;BME280;10713;51.912;4.494;2023-08-06T12:22:13;100846.22;;;20.97;100.00
21111;BME280;10713;51.912;4.494;2023-08-06T12:24:42;100854.44;;;20.96;100.00
21111;BME280;10713;51.912;4.494;2023-08-06T12:27:09;100848.72;;;20.89;100.00
21111;BME280;10713;51.912;4.494;2023-08-06T12:29:35;100862.03;;;20.79;100.00
21111;BME280;10713;51.912;4.494;2023-08-06T12:32:01;100849.94;;;20.85;100.00
21111;BME280;10713;51.912;4.494;2023-08-06T12:34:27;100849.34;;;20.81;100.00
21111;BME280;10713;51.912;4.494;2023-08-06T12:36:52;100857.50;;;20.80;100.00
21111;BME280;10713;51.912;4.494;2023-08-06T12:39:18;100857.66;;;20.67;100.00
21111;BME280;10713;51.912;4.494;2023-08-06T12:41:43;100862.03;;;20.68;100.00